Newbury Township, Ohio
Current Conditions -  °F | °C
As of 10:45 PM on Friday 21 Nov 2014 (Local Time) from KCGF Reporting Station
Clear Clear  
Wind Chill: 11°   Ceiling: Unl
Heat Index: 21°   Visibility: 10mi
Dew Point: 10°   Wind: 9mph
Humidity: 63%   Direction: 180°S
Pressure: 30.4"   Gusts: NA
Location:  41.4475°N, 81.4018°W
Report Text: KCGF 220345Z 18008KT 10SM SKC M06/M12 A3040
Loading
Personal Weather Stations






























Interactive Weather Map New forecast layout! Learn more

10-Day Weather Forecast

Advertisements
Track Severe Weather on mobile